createdAt,value
2019-02-28T00:01:01.846Z,7.59
2019-02-28T00:04:07.852Z,7.57
2019-02-28T00:07:17.616Z,7.94
2019-02-28T00:10:21.415Z,8.04
2019-02-28T00:13:27.228Z,7.90
2019-02-28T00:16:35.623Z,7.95
2019-02-28T00:19:40.951Z,7.93
2019-02-28T00:22:49.308Z,7.87
2019-02-28T00:25:54.246Z,7.78
2019-02-28T00:29:00.404Z,7.72
2019-02-28T00:32:07.251Z,7.76
2019-02-28T00:35:14.054Z,7.74
2019-02-28T00:38:20.094Z,7.68
2019-02-28T00:41:25.940Z,7.77
2019-02-28T00:44:31.896Z,7.71
2019-02-28T00:47:37.836Z,7.74
2019-02-28T00:50:43.885Z,7.68
2019-02-28T00:53:49.838Z,7.75
2019-02-28T00:56:55.810Z,7.41
2019-02-28T01:00:05.116Z,7.77
2019-02-28T01:03:10.545Z,7.63
2019-02-28T01:06:16.578Z,7.61
2019-02-28T01:09:22.569Z,7.67
2019-02-28T01:12:28.362Z,7.86
2019-02-28T01:15:34.266Z,7.70
2019-02-28T01:18:40.056Z,7.67
2019-02-28T01:21:45.844Z,7.60
2019-02-28T01:24:51.722Z,7.57
2019-02-28T01:27:57.604Z,7.83
2019-02-28T01:31:03.414Z,7.78
2019-02-28T01:34:09.206Z,7.78
2019-02-28T01:37:15.051Z,7.65
2019-02-28T01:40:22.050Z,7.64
2019-02-28T01:43:28.799Z,7.78
2019-02-28T01:46:35.356Z,7.56
2019-02-28T01:49:41.234Z,8.00
2019-02-28T01:52:47.114Z,8.06
2019-02-28T01:55:52.918Z,7.96
2019-02-28T01:58:59.797Z,8.13
2019-02-28T02:02:06.966Z,7.85
2019-02-28T02:05:13.053Z,7.93
2019-02-28T02:08:18.938Z,7.90
2019-02-28T02:11:26.675Z,7.99
2019-02-28T02:14:32.533Z,7.90
2019-02-28T02:17:38.366Z,7.81
2019-02-28T02:20:44.265Z,7.96
2019-02-28T02:23:52.970Z,7.82
2019-02-28T02:26:57.659Z,7.62
2019-02-28T02:30:03.599Z,7.59
2019-02-28T02:33:13.651Z,7.65
2019-02-28T02:36:17.774Z,7.58
2019-02-28T02:39:23.709Z,7.70
2019-02-28T02:42:29.507Z,7.70
2019-02-28T02:45:41.923Z,7.70
2019-02-28T02:48:43.384Z,7.56
2019-02-28T02:51:50.734Z,7.71
2019-02-28T02:54:56.636Z,7.58
2019-02-28T02:58:02.436Z,7.57
2019-02-28T03:01:08.317Z,7.78
2019-02-28T03:04:21.497Z,7.64
2019-02-28T03:07:24.544Z,7.51
2019-02-28T03:10:29.452Z,7.58
2019-02-28T03:13:42.144Z,7.50
2019-02-28T03:16:42.857Z,7.53
2019-02-28T03:19:48.768Z,7.65
2019-02-28T03:22:54.586Z,7.53
2019-02-28T03:26:05.724Z,7.45
2019-02-28T03:29:08.942Z,7.26
2019-02-28T03:32:14.887Z,6.86
2019-02-28T03:35:20.898Z,6.70
2019-02-28T03:38:26.751Z,6.86
2019-02-28T03:41:32.524Z,6.94
2019-02-28T03:44:38.503Z,6.87
2019-02-28T03:47:44.559Z,6.89
2019-02-28T03:50:55.204Z,7.10
2019-02-28T03:53:58.205Z,6.82
2019-02-28T03:57:04.100Z,6.89
2019-02-28T04:00:19.883Z,6.93
2019-02-28T04:03:25.973Z,6.88
2019-02-28T04:06:31.984Z,6.92
2019-02-28T04:09:43.749Z,6.71
2019-02-28T04:12:46.906Z,6.81
2019-02-28T04:16:07.632Z,6.68
2019-02-28T04:19:00.485Z,6.56
2019-02-28T04:22:06.499Z,6.65
2019-02-28T04:25:12.521Z,6.81
2019-02-28T04:28:19.078Z,6.87
2019-02-28T04:31:26.134Z,6.87
2019-02-28T04:34:31.940Z,6.83
2019-02-28T04:37:44.630Z,6.95
2019-02-28T04:40:45.432Z,6.87
2019-02-28T04:43:51.328Z,7.03
2019-02-28T04:46:57.320Z,7.06
2019-02-28T04:50:03.325Z,7.09
2019-02-28T04:53:09.099Z,7.18
2019-02-28T04:56:14.987Z,7.04
2019-02-28T04:59:20.819Z,7.26
2019-02-28T05:02:26.824Z,7.30
2019-02-28T05:05:32.787Z,7.21
2019-02-28T05:08:39.694Z,7.27
2019-02-28T05:11:46.715Z,7.32
2019-02-28T05:14:55.304Z,7.38
2019-02-28T05:18:00.168Z,7.40
2019-02-28T05:21:06.157Z,7.30
2019-02-28T05:24:12.012Z,7.48
2019-02-28T05:27:17.908Z,7.36
2019-02-28T05:30:23.734Z,7.30
2019-02-28T05:33:30.660Z,7.29
2019-02-28T05:36:38.079Z,7.10
2019-02-28T05:39:44.185Z,7.39
2019-02-28T05:42:49.987Z,7.50
2019-02-28T05:45:55.802Z,7.40
2019-02-28T05:49:01.707Z,7.52
2019-02-28T05:52:07.490Z,7.46
2019-02-28T05:55:13.540Z,7.63
2019-02-28T05:58:20.937Z,7.58
2019-02-28T06:01:26.911Z,7.52
2019-02-28T06:04:34.150Z,7.53
2019-02-28T06:07:40.390Z,7.69
2019-02-28T06:10:46.219Z,7.99
2019-02-28T06:13:52.697Z,8.27
2019-02-28T06:16:59.432Z,8.42
2019-02-28T06:20:06.250Z,8.71
2019-02-28T06:23:12.297Z,8.88
2019-02-28T06:26:18.188Z,9.22
2019-02-28T06:29:24.021Z,9.27
2019-02-28T06:32:29.883Z,9.21
2019-02-28T06:35:35.907Z,9.52
2019-02-28T06:38:41.718Z,10.01
2019-02-28T06:41:47.644Z,10.30
2019-02-28T06:44:53.445Z,10.35
2019-02-28T06:47:59.558Z,10.50
2019-02-28T06:51:05.696Z,10.88
2019-02-28T06:54:12.084Z,11.12
2019-02-28T06:57:17.905Z,11.26
2019-02-28T07:00:23.813Z,11.12
2019-02-28T07:03:29.617Z,11.53
2019-02-28T07:06:36.555Z,11.73
2019-02-28T07:09:42.500Z,12.05
2019-02-28T07:12:48.340Z,11.96
2019-02-28T07:15:55.600Z,12.31
2019-02-28T07:19:01.666Z,12.39
2019-02-28T07:22:07.678Z,12.43
2019-02-28T07:25:15.271Z,12.47
2019-02-28T07:28:21.244Z,12.58
2019-02-28T07:31:27.151Z,12.18
2019-02-28T07:34:32.962Z,12.46
2019-02-28T07:37:38.983Z,12.50
2019-02-28T07:40:45.718Z,12.69
2019-02-28T07:43:51.584Z,12.50
2019-02-28T07:46:57.376Z,12.69
2019-02-28T07:50:03.177Z,12.95
2019-02-28T07:53:09.842Z,12.98
2019-02-28T07:56:15.764Z,13.16
2019-02-28T07:59:21.550Z,13.23
2019-02-28T08:02:27.471Z,13.46
2019-02-28T08:05:33.364Z,13.55
2019-02-28T08:08:39.257Z,13.43
2019-02-28T08:11:45.167Z,13.74
2019-02-28T08:14:51.170Z,13.73
2019-02-28T08:17:58.213Z,13.45
2019-02-28T08:21:05.327Z,13.96
2019-02-28T08:24:11.716Z,13.55
2019-02-28T08:27:18.663Z,13.59
2019-02-28T08:30:24.946Z,13.81
2019-02-28T08:33:31.966Z,13.50
2019-02-28T08:36:37.778Z,14.20
2019-02-28T08:39:43.591Z,14.48
2019-02-28T08:42:50.047Z,14.20
2019-02-28T08:45:56.196Z,14.29
2019-02-28T08:49:06.332Z,14.13
2019-02-28T08:52:09.637Z,14.24
2019-02-28T08:55:17.017Z,14.44
2019-02-28T08:58:22.877Z,14.82
2019-02-28T09:01:28.777Z,15.08
2019-02-28T09:04:40.971Z,14.97
2019-02-28T09:07:42.418Z,15.24
2019-02-28T09:10:49.535Z,14.98
2019-02-28T09:13:55.348Z,15.50
2019-02-28T09:17:01.255Z,15.59
2019-02-28T09:20:10.541Z,15.67
2019-02-28T09:23:15.214Z,15.61
2019-02-28T09:26:21.067Z,15.69
2019-02-28T09:29:26.920Z,15.16
2019-02-28T09:32:32.838Z,15.52
2019-02-28T09:35:38.765Z,16.18
2019-02-28T09:38:45.304Z,16.15
2019-02-28T09:41:51.867Z,16.43
2019-02-28T09:44:57.790Z,16.42
2019-02-28T09:48:05.000Z,16.41
2019-02-28T09:51:11.096Z,16.44
2019-02-28T09:54:16.917Z,16.52
2019-02-28T09:57:22.767Z,16.44
2019-02-28T10:00:29.164Z,16.89
2019-02-28T10:03:34.978Z,16.95
2019-02-28T10:06:40.803Z,17.08
2019-02-28T10:09:48.712Z,17.05
2019-02-28T10:12:54.409Z,17.25
2019-02-28T10:16:00.297Z,17.70
2019-02-28T10:19:06.307Z,17.72
2019-02-28T10:22:12.916Z,17.52
2019-02-28T10:25:19.604Z,17.71
2019-02-28T10:28:25.561Z,17.61
2019-02-28T10:31:36.119Z,17.59
2019-02-28T10:34:39.082Z,17.65
2019-02-28T10:37:45.098Z,17.98
2019-02-28T10:40:52.484Z,18.03
2019-02-28T10:43:58.544Z,18.13
2019-02-28T10:47:04.585Z,18.06
2019-02-28T10:50:13.682Z,18.07
2019-02-28T10:53:19.710Z,17.66
2019-02-28T10:56:25.635Z,18.02
2019-02-28T10:59:31.573Z,18.23
2019-02-28T11:02:37.537Z,18.53
2019-02-28T11:05:45.841Z,18.43
2019-02-28T11:08:51.727Z,18.44
2019-02-28T11:11:57.772Z,18.43
2019-02-28T11:15:03.817Z,18.72
2019-02-28T11:18:11.739Z,18.73
2019-02-28T11:21:17.851Z,18.62
2019-02-28T11:24:26.957Z,18.95
2019-02-28T11:27:31.756Z,19.22
2019-02-28T11:30:38.036Z,19.37
2019-02-28T11:33:43.936Z,19.37
2019-02-28T11:36:49.850Z,19.62
2019-02-28T11:39:55.867Z,19.53
2019-02-28T11:43:03.853Z,19.39
2019-02-28T11:46:11.301Z,19.07
2019-02-28T11:49:17.218Z,19.01
2019-02-28T11:52:24.547Z,19.15
2019-02-28T11:55:30.625Z,19.15
2019-02-28T11:58:36.646Z,19.20
2019-02-28T12:01:47.426Z,19.20
2019-02-28T12:04:50.203Z,19.31
2019-02-28T12:07:56.119Z,19.05
2019-02-28T12:11:02.870Z,19.43
2019-02-28T12:14:08.746Z,19.43
2019-02-28T12:17:15.178Z,19.54
2019-02-28T12:20:25.942Z,19.75
2019-02-28T12:23:28.558Z,19.62
2019-02-28T12:26:34.544Z,19.49
2019-02-28T12:29:40.436Z,19.71
2019-02-28T12:32:46.339Z,19.47
2019-02-28T12:35:52.249Z,19.43
2019-02-28T12:38:59.378Z,19.33
2019-02-28T12:42:05.737Z,19.53
2019-02-28T12:45:15.012Z,19.49
2019-02-28T12:48:20.837Z,19.14
2019-02-28T12:51:26.658Z,19.08
2019-02-28T12:54:33.503Z,19.15
2019-02-28T12:57:41.171Z,19.02
2019-02-28T13:00:47.095Z,19.24
2019-02-28T13:03:57.743Z,19.31
2019-02-28T13:07:00.449Z,19.32
2019-02-28T13:10:07.281Z,19.32
2019-02-28T13:13:13.193Z,19.57
2019-02-28T13:16:20.796Z,19.51
2019-02-28T13:19:28.949Z,19.53
2019-02-28T13:22:34.659Z,19.70
2019-02-28T13:25:40.385Z,19.62
2019-02-28T13:28:46.329Z,19.67
2019-02-28T13:31:52.177Z,19.59
2019-02-28T13:34:58.008Z,19.40
2019-02-28T13:38:03.712Z,19.33
2019-02-28T13:41:09.529Z,19.26
2019-02-28T13:44:15.324Z,19.02
2019-02-28T13:47:21.079Z,19.01
2019-02-28T13:50:27.318Z,19.13
2019-02-28T13:53:33.408Z,19.20
2019-02-28T13:56:40.337Z,19.38
2019-02-28T13:59:46.069Z,19.10
2019-02-28T14:02:53.686Z,19.20
2019-02-28T14:05:59.568Z,18.91
2019-02-28T14:09:08.697Z,18.91
2019-02-28T14:12:20.665Z,18.87
2019-02-28T14:15:31.126Z,18.87
2019-02-28T14:18:42.503Z,18.83
2019-02-28T14:21:55.644Z,18.76
2019-02-28T14:25:05.130Z,18.76
2019-02-28T14:28:10.374Z,18.37
2019-02-28T14:31:16.160Z,17.96
2019-02-28T14:34:22.021Z,18.12
2019-02-28T14:37:27.749Z,18.06
2019-02-28T14:40:33.521Z,18.19
2019-02-28T14:43:39.249Z,18.17
2019-02-28T14:46:45.035Z,18.17
2019-02-28T14:49:52.789Z,18.07
2019-02-28T14:52:58.769Z,18.01
2019-02-28T14:56:07.233Z,17.99
2019-02-28T14:59:12.939Z,17.83
2019-02-28T15:02:18.762Z,17.91
2019-02-28T15:05:24.678Z,17.92
2019-02-28T15:08:30.607Z,17.91
2019-02-28T15:11:36.512Z,17.91
2019-02-28T15:14:43.243Z,17.94
2019-02-28T15:17:50.628Z,17.83
2019-02-28T15:20:56.555Z,17.77
2019-02-28T15:24:05.404Z,17.72
2019-02-28T15:27:10.072Z,17.71
2019-02-28T15:30:18.315Z,17.61
2019-02-28T15:33:27.404Z,17.54
2019-02-28T15:36:31.950Z,17.55
2019-02-28T15:39:37.862Z,17.39
2019-02-28T15:42:44.109Z,17.29
2019-02-28T15:45:50.307Z,17.14
2019-02-28T15:48:56.200Z,17.04
2019-02-28T15:52:05.208Z,16.96
2019-02-28T15:55:10.180Z,16.83
2019-02-28T15:58:17.202Z,16.77
2019-02-28T16:01:23.079Z,16.69
2019-02-28T16:04:28.983Z,16.53
2019-02-28T16:07:34.952Z,16.54
2019-02-28T16:10:40.864Z,16.43
2019-02-28T16:13:46.795Z,16.32
2019-02-28T16:16:52.716Z,16.22
2019-02-28T16:19:58.645Z,16.16
2019-02-28T16:23:04.828Z,16.12
2019-02-28T16:26:10.820Z,15.94
2019-02-28T16:29:20.706Z,15.95
2019-02-28T16:32:25.418Z,15.89
2019-02-28T16:35:31.497Z,15.88
2019-02-28T16:38:37.423Z,15.87
2019-02-28T16:41:43.513Z,15.87
2019-02-28T16:44:49.456Z,15.79
2019-02-28T16:47:55.677Z,15.83
2019-02-28T16:51:02.957Z,15.76
2019-02-28T16:54:08.855Z,15.68
2019-02-28T16:57:14.952Z,15.51
2019-02-28T17:00:21.129Z,15.58
2019-02-28T17:03:27.000Z,15.33
2019-02-28T17:06:35.598Z,15.27
2019-02-28T17:09:43.259Z,15.14
2019-02-28T17:13:06.977Z,15.09
2019-02-28T17:16:37.086Z,15.08
2019-02-28T17:19:42.717Z,14.94
2019-02-28T17:22:48.871Z,14.88
2019-02-28T17:25:56.471Z,14.88
2019-02-28T17:29:07.528Z,14.85
2019-02-28T17:32:13.569Z,14.59
2019-02-28T17:35:19.647Z,14.59
2019-02-28T17:38:25.547Z,14.65
2019-02-28T17:41:33.988Z,14.78
2019-02-28T17:45:24.554Z,14.61
2019-02-28T17:48:58.875Z,14.76
2019-02-28T17:52:34.425Z,14.80
2019-02-28T17:56:22.795Z,14.78
2019-02-28T18:00:07.510Z,14.80
2019-02-28T18:04:24.070Z,14.71
2019-02-28T18:08:00.543Z,14.65
2019-02-28T18:11:38.027Z,14.60
2019-02-28T18:14:58.894Z,14.17
2019-02-28T18:18:37.792Z,14.14
2019-02-28T18:22:25.780Z,14.12
2019-02-28T18:26:39.248Z,14.02
2019-02-28T18:30:29.199Z,13.71
2019-02-28T18:33:37.793Z,13.56
2019-02-28T18:36:44.349Z,13.27
2019-02-28T18:39:50.503Z,13.21
2019-02-28T18:42:57.916Z,13.20
2019-02-28T18:46:04.075Z,13.34
2019-02-28T18:49:11.305Z,13.20
2019-02-28T18:52:18.069Z,13.31
2019-02-28T18:55:24.230Z,13.41
2019-02-28T18:58:30.253Z,13.61
2019-02-28T19:01:36.256Z,13.72
2019-02-28T19:04:42.156Z,13.82
2019-02-28T19:07:48.037Z,14.01
2019-02-28T19:10:55.053Z,13.98
2019-02-28T19:14:00.997Z,14.08
2019-02-28T19:17:07.155Z,13.95
2019-02-28T19:20:13.138Z,13.79
2019-02-28T19:23:19.018Z,13.81
2019-02-28T19:26:24.913Z,13.79
2019-02-28T19:29:32.156Z,13.56
2019-02-28T19:32:38.219Z,13.75
2019-02-28T19:35:44.185Z,13.69
2019-02-28T19:38:50.178Z,13.60
2019-02-28T19:41:56.099Z,13.66
2019-02-28T19:45:02.030Z,13.53
2019-02-28T19:48:08.140Z,13.55
2019-02-28T19:51:14.006Z,13.41
2019-02-28T19:54:19.900Z,13.50
2019-02-28T19:57:25.817Z,13.52
2019-02-28T20:00:31.696Z,13.53
2019-02-28T20:03:37.598Z,13.47
2019-02-28T20:06:43.538Z,13.49
2019-02-28T20:09:49.450Z,13.63
2019-02-28T20:12:55.545Z,13.62
2019-02-28T20:16:01.655Z,13.70
2019-02-28T20:19:07.705Z,13.60
2019-02-28T20:22:13.644Z,13.66
2019-02-28T20:25:19.877Z,13.66
2019-02-28T20:28:26.016Z,13.56
2019-02-28T20:31:32.229Z,13.65
2019-02-28T20:34:38.217Z,13.62
2019-02-28T20:37:44.215Z,13.59
2019-02-28T20:40:50.260Z,13.61
2019-02-28T20:43:56.263Z,13.65
2019-02-28T20:47:02.265Z,13.60
2019-02-28T20:50:12.678Z,13.51
2019-02-28T20:53:18.640Z,13.70
2019-02-28T20:56:24.699Z,13.36
2019-02-28T20:59:30.576Z,13.45
2019-02-28T21:02:36.569Z,13.35
2019-02-28T21:05:42.558Z,13.28
2019-02-28T21:08:48.556Z,13.19
2019-02-28T21:11:54.445Z,13.15
2019-02-28T21:15:01.496Z,13.26
2019-02-28T21:18:08.836Z,13.17
2019-02-28T21:21:14.745Z,13.09
2019-02-28T21:24:20.656Z,13.11
2019-02-28T21:27:26.588Z,12.89
2019-02-28T21:30:32.587Z,12.82
2019-02-28T21:33:38.488Z,12.79
2019-02-28T21:36:44.791Z,12.84
2019-02-28T21:39:50.757Z,12.77
2019-02-28T21:42:56.820Z,12.74
2019-02-28T21:46:03.068Z,12.62
2019-02-28T21:49:09.163Z,12.71
2019-02-28T21:52:15.580Z,12.83
2019-02-28T21:55:21.747Z,12.78
2019-02-28T21:58:27.716Z,12.78
2019-02-28T22:01:33.733Z,12.69
2019-02-28T22:04:39.716Z,12.81
2019-02-28T22:07:45.724Z,12.86
2019-02-28T22:10:51.626Z,12.87
2019-02-28T22:13:57.637Z,12.97
2019-02-28T22:17:03.529Z,13.10
2019-02-28T22:20:11.462Z,13.09
2019-02-28T22:23:17.352Z,13.15
2019-02-28T22:26:23.241Z,13.24
2019-02-28T22:29:29.124Z,13.45
2019-02-28T22:32:41.197Z,13.32
2019-02-28T22:35:50.083Z,13.36
2019-02-28T22:38:55.994Z,13.52
2019-02-28T22:42:01.888Z,13.53
2019-02-28T22:45:08.697Z,13.60
2019-02-28T22:48:14.612Z,13.61
2019-02-28T22:51:20.492Z,13.68
2019-02-28T22:54:26.345Z,13.61
2019-02-28T22:57:32.223Z,13.43
2019-02-28T23:01:06.385Z,13.62
2019-02-28T23:04:12.538Z,13.63
2019-02-28T23:07:18.457Z,13.68
2019-02-28T23:10:24.330Z,13.73
2019-02-28T23:13:30.235Z,13.58
2019-02-28T23:16:36.120Z,13.62
2019-02-28T23:19:42.130Z,13.50
2019-02-28T23:22:48.019Z,13.60
2019-02-28T23:25:54.003Z,13.61
2019-02-28T23:29:08.004Z,13.37
2019-02-28T23:32:46.770Z,13.43
2019-02-28T23:35:52.657Z,13.38
2019-02-28T23:38:58.618Z,13.43
2019-02-28T23:42:04.774Z,13.29
2019-02-28T23:45:10.755Z,13.19
2019-02-28T23:48:16.624Z,13.09
2019-02-28T23:51:22.483Z,13.05
2019-02-28T23:54:28.408Z,13.12
2019-02-28T23:57:34.315Z,13.11
